createdAt,value
2023-01-19T02:22:03.200Z,78.14
2023-01-19T02:24:33.372Z,77.08
2023-01-19T02:27:05.454Z,76.75
2023-01-19T02:29:35.471Z,76.35
2023-01-19T02:32:03.283Z,76.02
2023-01-19T02:34:33.469Z,75.87
2023-01-19T02:37:07.285Z,75.75
2023-01-19T02:39:39.870Z,75.43
2023-01-19T02:42:19.208Z,75.35
2023-01-19T02:44:48.587Z,75.18
2023-01-19T02:47:18.606Z,75.06
2023-01-19T02:49:46.191Z,74.72
2023-01-19T02:52:16.754Z,74.80
2023-01-19T02:54:56.810Z,74.84
2023-01-19T02:57:33.803Z,74.76
2023-01-19T03:00:36.761Z,74.84
2023-01-19T03:03:14.798Z,74.80
2023-01-19T03:06:05.817Z,74.58
2023-01-19T03:08:39.946Z,74.67
2023-01-19T03:11:10.828Z,74.89
2023-01-19T03:13:59.403Z,74.88
2023-01-19T03:16:30.045Z,74.77
2023-01-19T03:19:01.980Z,74.97
2023-01-19T03:21:29.051Z,74.76
2023-01-19T03:23:58.323Z,74.96
2023-01-19T03:26:30.380Z,75.13
2023-01-19T03:29:00.634Z,75.26
2023-01-19T03:31:30.748Z,75.07
2023-01-19T03:34:03.252Z,75.30
2023-01-19T03:36:41.811Z,75.40
2023-01-19T03:39:09.389Z,75.29
2023-01-19T03:41:36.457Z,75.21
2023-01-19T08:20:06.951Z,83.42
2023-01-19T08:22:34.094Z,82.30
2023-01-19T08:25:01.049Z,82.03
2023-01-19T08:27:27.987Z,81.68
2023-01-19T08:29:54.981Z,81.38
2023-01-19T08:32:21.943Z,81.20
2023-01-19T08:34:49.071Z,80.84
2023-01-19T08:37:16.058Z,80.58
2023-01-19T08:39:43.348Z,80.01
2023-01-19T08:42:10.305Z,79.75
2023-01-19T08:44:43.765Z,79.47
2023-01-19T08:47:20.252Z,79.26
2023-01-19T08:49:47.336Z,79.05
2023-01-19T08:52:14.543Z,79.02
2023-01-19T08:54:41.770Z,78.84
2023-01-19T09:03:11.805Z,78.23
2023-01-19T09:05:39.138Z,78.48
2023-01-19T09:08:11.117Z,78.52
2023-01-19T09:10:39.263Z,78.37
2023-01-19T09:13:08.690Z,78.07
2023-01-19T09:15:38.325Z,77.73
2023-01-19T09:18:07.448Z,77.74
2023-01-19T09:20:36.332Z,77.81
2023-01-19T09:23:05.236Z,78.55
2023-01-19T09:25:33.020Z,78.76
2023-01-19T09:28:00.830Z,78.82
2023-01-19T09:30:28.280Z,78.60
2023-01-19T09:32:55.275Z,78.36
2023-01-19T09:35:22.706Z,78.03
2023-01-19T09:37:54.541Z,77.64
2023-01-19T09:40:21.684Z,76.80
2023-01-19T09:42:52.424Z,75.75
2023-01-19T09:45:32.088Z,75.49
2023-01-19T09:47:59.804Z,75.89
2023-01-19T09:50:32.601Z,75.95
2023-01-19T09:53:04.602Z,75.94
2023-01-19T09:55:31.503Z,75.59
2023-01-19T09:57:59.028Z,75.27
2023-01-19T10:00:27.827Z,74.57
2023-01-19T10:03:16.636Z,74.52
2023-01-19T10:05:53.102Z,74.42
2023-01-19T10:08:29.828Z,74.38
2023-01-19T10:10:57.498Z,74.07
2023-01-19T10:13:39.433Z,73.92
2023-01-19T10:16:18.857Z,73.57
2023-01-19T10:18:51.945Z,73.51
2023-01-19T10:21:26.230Z,73.40
2023-01-19T10:24:06.610Z,73.30
2023-01-19T10:26:36.582Z,73.15
2023-01-19T10:29:09.952Z,73.04
2023-01-19T10:31:38.286Z,73.00
2023-01-19T10:34:05.541Z,72.72
2023-01-19T10:36:37.198Z,72.71
2023-01-19T10:39:05.844Z,72.26
2023-01-19T10:41:48.005Z,72.06
2023-01-19T10:44:23.007Z,72.05
2023-01-19T10:46:53.645Z,72.28
2023-01-19T10:49:36.006Z,72.14
2023-01-19T10:52:05.287Z,72.23
2023-01-19T10:54:32.901Z,72.11
2023-01-19T10:57:05.350Z,72.10
2023-01-19T10:59:51.321Z,71.98
2023-01-19T11:02:22.910Z,72.01
2023-01-19T14:20:30.235Z,76.25
2023-01-19T14:22:57.342Z,74.98
2023-01-19T14:25:32.104Z,74.59
2023-01-19T14:28:30.604Z,74.26
2023-01-19T14:31:17.845Z,73.77
2023-01-19T14:33:47.127Z,73.66
2023-01-19T14:36:16.776Z,73.68
2023-01-19T14:38:48.060Z,73.59
2023-01-19T14:41:27.269Z,73.59
2023-01-19T14:43:56.301Z,73.37
2023-01-19T14:46:23.859Z,73.20
2023-01-19T14:48:52.258Z,73.33
2023-01-19T14:51:20.657Z,73.26
2023-01-19T14:53:50.037Z,73.35
2023-01-19T14:56:27.247Z,73.28
2023-01-19T14:58:56.038Z,73.31
2023-01-19T15:01:24.159Z,73.45
2023-01-19T15:03:51.140Z,73.45
2023-01-19T15:06:20.042Z,73.50
2023-01-19T15:08:47.487Z,73.54
2023-01-19T15:11:33.306Z,73.88
2023-01-19T15:14:00.596Z,73.95
2023-01-19T15:16:28.674Z,74.12
2023-01-19T15:18:55.801Z,74.16
2023-01-19T15:21:30.269Z,74.13
2023-01-19T15:23:58.690Z,74.07
2023-01-19T15:26:26.600Z,74.13
2023-01-19T15:28:53.669Z,74.30
2023-01-19T15:31:25.153Z,74.58
2023-01-19T15:33:52.315Z,74.85
2023-01-19T15:36:20.725Z,75.05
2023-01-19T15:38:50.361Z,75.03
2023-01-19T15:41:23.609Z,75.18
2023-01-19T15:43:50.835Z,75.37
2023-01-19T15:46:19.265Z,75.40
2023-01-19T15:48:47.358Z,75.49
2023-01-19T15:51:15.664Z,75.58
2023-01-19T15:53:52.653Z,75.63
2023-01-19T15:56:27.055Z,75.62
2023-01-19T15:58:56.147Z,75.65
2023-01-19T16:01:33.255Z,75.62
2023-01-19T16:04:10.471Z,75.73
2023-01-19T16:06:39.030Z,75.92
2023-01-19T16:09:14.257Z,76.24
2023-01-19T16:11:41.351Z,76.14
2023-01-19T16:14:11.214Z,76.13
2023-01-19T16:16:38.549Z,76.19
2023-01-19T16:19:05.563Z,76.38
2023-01-19T16:21:32.598Z,76.58
2023-01-19T16:23:59.616Z,76.80
2023-01-19T16:26:36.698Z,77.01
2023-01-19T16:29:11.029Z,77.14
2023-01-19T16:31:38.518Z,77.31
2023-01-19T16:34:05.604Z,77.42
2023-01-19T16:36:33.413Z,77.36
2023-01-19T16:39:08.687Z,77.50
2023-01-19T16:41:35.713Z,77.55
2023-01-19T16:44:03.031Z,77.50
2023-01-19T16:46:34.065Z,77.72
2023-01-19T16:49:15.159Z,77.96
2023-01-19T16:51:42.323Z,78.15
2023-01-19T16:54:17.304Z,78.25
2023-01-19T16:56:44.427Z,78.19
2023-01-19T16:59:12.430Z,77.97
2023-01-19T17:01:39.513Z,77.79
2023-01-19T19:53:57.386Z,84.47
2023-01-19T19:56:25.626Z,82.92
2023-01-19T19:58:54.633Z,82.60
2023-01-19T20:01:26.082Z,82.17
2023-01-19T20:03:54.680Z,81.54
2023-01-19T20:06:22.924Z,80.99
2023-01-19T20:08:51.333Z,80.62
2023-01-19T20:11:23.655Z,80.18
2023-01-19T20:13:51.244Z,79.45
2023-01-19T20:16:20.964Z,78.71
2023-01-19T20:18:51.051Z,77.91
2023-01-19T20:21:26.040Z,76.93
2023-01-19T20:23:54.357Z,76.11
2023-01-19T20:26:27.579Z,75.30
2023-01-19T20:28:55.320Z,74.15
2023-01-19T20:31:28.395Z,73.53
2023-01-19T20:33:56.863Z,72.87
2023-01-19T20:36:24.970Z,72.45
2023-01-19T20:38:53.378Z,71.50
2023-01-19T20:41:23.677Z,71.20
2023-01-19T20:43:53.910Z,70.77
2023-01-19T20:46:21.017Z,70.39
2023-01-19T20:48:56.934Z,70.20
2023-01-19T20:51:26.229Z,70.11
2023-01-19T20:53:53.869Z,69.83
2023-01-19T20:56:23.143Z,69.58
2023-01-19T20:58:50.502Z,69.44
2023-01-19T21:01:25.596Z,69.33
2023-01-19T21:03:53.004Z,69.24
2023-01-19T21:06:20.681Z,69.14
2023-01-19T21:08:50.175Z,69.03
2023-01-19T21:11:24.057Z,68.97
2023-01-19T21:13:56.138Z,68.97
2023-01-19T21:16:25.161Z,69.20
2023-01-19T21:18:52.560Z,69.17
2023-01-19T21:21:29.917Z,69.01
2023-01-19T21:24:02.708Z,69.06
2023-01-19T21:32:30.639Z,69.07
2023-01-19T21:35:02.461Z,69.15
2023-01-19T21:37:31.170Z,69.28
2023-01-19T21:39:58.565Z,69.39
2023-01-19T21:42:25.682Z,69.34
2023-01-19T21:44:53.343Z,69.40
2023-01-19T21:47:20.505Z,69.38
2023-01-19T21:49:52.665Z,69.30
2023-01-19T21:52:20.323Z,69.27
2023-01-19T21:54:47.327Z,69.23
2023-01-19T21:57:15.306Z,69.27
2023-01-19T21:59:42.380Z,69.21
